Time,TemperatureF,DewpointF,PressureIn,WindDirection,WindDirectionDegrees,WindSpeedMPH,WindSpeedGustMPH,Humidity,HourlyPrecipIn,Conditions,Clouds,dailyrainin,SoftwareType,DateUTC
2017-06-27 00:02:00,67.1,20.8,30.74,SSE,147,4.9,10.5,17,0.00,,,0.00,WUHU216WMR968SP,2017-06-27 07:02:00,
2017-06-27 00:07:00,66.7,20.4,30.74,SSE,157,4.5,8.1,17,0.00,,,0.00,WUHU216WMR968SP,2017-06-27 07:07:00,
2017-06-27 00:12:00,66.4,20.2,30.74,SE,141,4.9,8.7,17,0.00,,,0.00,WUHU216WMR968SP,2017-06-27 07:12:00,
2017-06-27 00:17:00,65.8,21.1,30.77,SE,140,0.0,8.7,18,0.00,,,0.00,WUHU216WMR968SP,2017-06-27 07:17:00,
2017-06-27 00:22:00,64.4,19.9,30.77,SE,140,0.0,5.4,18,0.00,,,0.00,WUHU216WMR968SP,2017-06-27 07:22:00,
2017-06-27 00:27:00,63.0,18.8,30.77,SE,140,0.0,0.0,18,0.00,,,0.00,WUHU216WMR968SP,2017-06-27 07:27:00,
2017-06-27 00:32:00,61.5,18.8,30.77,NE,49,0.0,4.0,19,0.00,,,0.00,WUHU216WMR968SP,2017-06-27 07:32:00,
2017-06-27 00:37:00,61.0,18.4,30.77,NNW,327,0.0,4.0,19,0.00,,,0.00,WUHU216WMR968SP,2017-06-27 07:37:00,
2017-06-27 00:42:00,60.3,17.8,30.77,NNW,334,0.0,0.0,19,0.00,,,0.00,WUHU216WMR968SP,2017-06-27 07:42:00,
2017-06-27 00:47:00,60.1,17.6,30.74,NNW,334,0.0,0.0,19,0.00,,,0.00,WUHU216WMR968SP,2017-06-27 07:47:00,
2017-06-27 00:52:00,60.4,17.9,30.74,NNW,334,0.0,0.0,19,0.00,,,0.00,WUHU216WMR968SP,2017-06-27 07:52:00,
2017-06-27 00:57:00,60.4,17.9,30.74,NNW,334,0.0,0.0,19,0.00,,,0.00,WUHU216WMR968SP,2017-06-27 07:57:00,
2017-06-27 01:02:00,59.4,14.5,30.74,NNW,334,0.0,0.0,17,0.00,,,0.00,WUHU216WMR968SP,2017-06-27 08:02:00,
2017-06-27 01:07:00,58.5,16.3,30.74,North,349,0.0,0.0,19,0.00,,,0.00,WUHU216WMR968SP,2017-06-27 08:07:00,
2017-06-27 01:12:00,57.9,13.3,30.74,North,349,0.0,0.0,17,0.00,,,0.00,WUHU216WMR968SP,2017-06-27 08:12:00,
2017-06-27 01:17:00,58.3,13.6,30.74,East,97,3.1,4.0,17,0.00,,,0.00,WUHU216WMR968SP,2017-06-27 08:17:00,
2017-06-27 01:22:00,59.7,17.3,30.74,East,99,3.1,6.3,19,0.00,,,0.00,WUHU216WMR968SP,2017-06-27 08:22:00,
2017-06-27 01:27:00,60.1,17.6,30.74,South,178,0.0,6.3,19,0.00,,,0.00,WUHU216WMR968SP,2017-06-27 08:27:00,
2017-06-27 01:32:00,59.7,17.3,30.74,South,178,0.0,3.1,19,0.00,,,0.00,WUHU216WMR968SP,2017-06-27 08:32:00,
2017-06-27 01:37:00,58.8,16.6,30.74,South,178,0.0,0.0,19,0.00,,,0.00,WUHU216WMR968SP,2017-06-27 08:37:00,
2017-06-27 01:42:00,58.1,13.4,30.74,South,178,0.0,0.0,17,0.00,,,0.00,WUHU216WMR968SP,2017-06-27 08:42:00,
2017-06-27 01:48:00,58.3,13.6,30.74,South,178,0.0,0.0,17,0.00,,,0.00,WUHU216WMR968SP,2017-06-27 08:48:00,
2017-06-27 01:52:00,59.5,17.1,30.74,SE,127,4.9,5.8,19,0.00,,,0.00,WUHU216WMR968SP,2017-06-27 08:52:00,
2017-06-27 01:53:00,59.5,17.1,30.74,SE,126,4.0,5.8,19,0.00,,,0.00,WUHU216WMR968SP,2017-06-27 08:53:00,
2017-06-27 01:58:00,60.3,17.8,30.74,SE,130,3.6,5.8,19,0.00,,,0.00,WUHU216WMR968SP,2017-06-27 08:58:00,
2017-06-27 02:03:00,60.4,17.9,30.74,SE,126,2.2,4.9,19,0.00,,,0.00,WUHU216WMR968SP,2017-06-27 09:03:00,
2017-06-27 02:08:00,60.4,17.9,30.74,SE,130,2.2,5.4,19,0.00,,,0.00,WUHU216WMR968SP,2017-06-27 09:08:00,
2017-06-27 02:13:00,60.4,17.9,30.74,SE,129,2.7,5.4,19,0.00,,,0.00,WUHU216WMR968SP,2017-06-27 09:13:00,
2017-06-27 02:18:00,60.1,17.6,30.74,SE,133,0.0,5.4,19,0.00,,,0.00,WUHU216WMR968SP,2017-06-27 09:18:00,
2017-06-27 02:23:00,59.4,17.0,30.74,SE,133,0.0,5.4,19,0.00,,,0.00,WUHU216WMR968SP,2017-06-27 09:23:00,
2017-06-27 02:28:00,58.1,13.4,30.74,SE,133,0.0,3.1,17,0.00,,,0.00,WUHU216WMR968SP,2017-06-27 09:28:00,
2017-06-27 02:33:00,57.9,13.3,30.74,SE,135,3.6,5.4,17,0.00,,,0.00,WUHU216WMR968SP,2017-06-27 09:33:00,
2017-06-27 02:38:00,58.3,13.6,30.74,SE,135,2.2,5.4,17,0.00,,,0.00,WUHU216WMR968SP,2017-06-27 09:38:00,
2017-06-27 02:43:00,58.3,13.6,30.74,SE,135,0.0,5.4,17,0.00,,,0.00,WUHU216WMR968SP,2017-06-27 09:43:00,
2017-06-27 02:48:00,58.1,13.4,30.74,SE,135,0.0,5.4,17,0.00,,,0.00,WUHU216WMR968SP,2017-06-27 09:48:00,
2017-06-27 02:53:00,57.4,12.9,30.74,SE,135,0.0,3.1,17,0.00,,,0.00,WUHU216WMR968SP,2017-06-27 09:53:00,
2017-06-27 02:58:00,57.6,13.0,30.74,SE,135,0.0,3.1,17,0.00,,,0.00,WUHU216WMR968SP,2017-06-27 09:58:00,
2017-06-27 03:03:00,57.6,13.0,30.74,SE,135,0.0,3.1,17,0.00,,,0.00,WUHU216WMR968SP,2017-06-27 10:03:00,
2017-06-27 03:08:00,56.7,12.3,30.74,SE,135,0.0,3.1,17,0.00,,,0.00,WUHU216WMR968SP,2017-06-27 10:08:00,
2017-06-27 03:13:00,55.6,11.4,30.74,SE,135,0.0,3.1,17,0.00,,,0.00,WUHU216WMR968SP,2017-06-27 10:13:00,
2017-06-27 03:18:00,54.3,11.6,30.74,SE,135,0.0,2.7,18,0.00,,,0.00,WUHU216WMR968SP,2017-06-27 10:18:00,
2017-06-27 03:23:00,53.2,10.7,30.74,SE,135,0.0,0.0,18,0.00,,,0.00,WUHU216WMR968SP,2017-06-27 10:23:00,
2017-06-27 03:28:00,52.5,10.1,30.74,SE,135,0.0,0.0,18,0.00,,,0.00,WUHU216WMR968SP,2017-06-27 10:28:00,
2017-06-27 03:33:00,51.8,9.6,30.74,SE,135,0.0,0.0,18,0.00,,,0.00,WUHU216WMR968SP,2017-06-27 10:33:00,
2017-06-27 03:38:00,51.1,12.4,30.74,SE,135,0.0,0.0,21,0.00,,,0.00,WUHU216WMR968SP,2017-06-27 10:38:00,
2017-06-27 03:43:00,50.5,11.9,30.74,SE,135,0.0,0.0,21,0.00,,,0.00,WUHU216WMR968SP,2017-06-27 10:43:00,
2017-06-27 03:48:00,50.0,11.5,30.74,SE,135,0.0,0.0,21,0.00,,,0.00,WUHU216WMR968SP,2017-06-27 10:48:00,
2017-06-27 03:53:00,49.6,11.2,30.74,SE,135,0.0,0.0,21,0.00,,,0.00,WUHU216WMR968SP,2017-06-27 10:53:00,
2017-06-27 03:58:00,49.5,14.0,30.74,SE,135,0.0,0.0,24,0.00,,,0.00,WUHU216WMR968SP,2017-06-27 10:58:00,
2017-06-27 04:03:00,49.5,14.0,30.74,SE,135,0.0,0.0,24,0.00,,,0.00,WUHU216WMR968SP,2017-06-27 11:03:00,
2017-06-27 04:08:00,49.1,13.7,30.74,SE,135,0.0,0.0,24,0.00,,,0.00,WUHU216WMR968SP,2017-06-27 11:08:00,
2017-06-27 04:13:00,48.6,13.3,30.74,SE,135,0.0,0.0,24,0.00,,,0.00,WUHU216WMR968SP,2017-06-27 11:13:00,
2017-06-27 04:18:00,48.4,13.1,30.74,SE,135,0.0,0.0,24,0.00,,,0.00,WUHU216WMR968SP,2017-06-27 11:18:00,
2017-06-27 04:23:00,48.2,12.9,30.74,SE,135,0.0,0.0,24,0.00,,,0.00,WUHU216WMR968SP,2017-06-27 11:23:00,
2017-06-27 04:28:00,48.0,12.8,30.74,SE,135,0.0,0.0,24,0.00,,,0.00,WUHU216WMR968SP,2017-06-27 11:28:00,
2017-06-27 04:33:00,48.2,12.9,30.74,SE,135,0.0,0.0,24,0.00,,,0.00,WUHU216WMR968SP,2017-06-27 11:33:00,
2017-06-27 04:38:00,48.2,12.9,30.74,SE,135,0.0,0.0,24,0.00,,,0.00,WUHU216WMR968SP,2017-06-27 11:38:00,
2017-06-27 04:43:00,48.0,12.8,30.74,SE,135,0.0,0.0,24,0.00,,,0.00,WUHU216WMR968SP,2017-06-27 11:43:00,
2017-06-27 04:49:00,48.0,12.8,30.74,SE,135,0.0,0.0,24,0.00,,,0.00,WUHU216WMR968SP,2017-06-27 11:49:00,
2017-06-27 04:54:00,48.2,12.9,30.74,SE,135,0.0,0.0,24,0.00,,,0.00,WUHU216WMR968SP,2017-06-27 11:54:00,
2017-06-27 04:58:00,48.0,12.8,30.74,SE,135,0.0,0.0,24,0.00,,,0.00,WUHU216WMR968SP,2017-06-27 11:58:00,
2017-06-27 05:03:00,48.4,10.2,30.74,SE,128,2.2,4.0,21,0.00,,,0.00,WUHU216WMR968SP,2017-06-27 12:03:00,
2017-06-27 05:08:00,49.5,11.1,30.74,SE,124,2.7,4.0,21,0.00,,,0.00,WUHU216WMR968SP,2017-06-27 12:08:00,
2017-06-27 05:13:00,50.7,12.1,30.74,ESE,123,0.0,3.6,21,0.00,,,0.00,WUHU216WMR968SP,2017-06-27 12:13:00,
2017-06-27 05:19:00,51.6,12.8,30.74,ESE,122,2.7,4.9,21,0.00,,,0.00,WUHU216WMR968SP,2017-06-27 12:19:00,
2017-06-27 05:24:00,52.2,13.3,30.74,SE,126,4.0,5.8,21,0.00,,,0.00,WUHU216WMR968SP,2017-06-27 12:24:00,
2017-06-27 05:29:00,52.3,13.4,30.74,SE,129,4.5,6.3,21,0.00,,,0.00,WUHU216WMR968SP,2017-06-27 12:29:00,
2017-06-27 05:34:00,52.7,13.8,30.74,ESE,122,4.0,7.6,21,0.00,,,0.00,WUHU216WMR968SP,2017-06-27 12:34:00,
2017-06-27 05:44:00,52.0,15.2,30.74,ESE,117,0.0,4.0,23,0.00,,,0.00,WUHU216WMR968SP,2017-06-27 12:44:00,
2017-06-27 05:49:00,51.1,15.4,30.74,ESE,117,0.0,3.6,24,0.00,,,0.00,WUHU216WMR968SP,2017-06-27 12:49:00,
2017-06-27 05:54:00,50.2,14.6,30.74,ESE,117,0.0,0.0,24,0.00,,,0.00,WUHU216WMR968SP,2017-06-27 12:54:00,
2017-06-27 05:59:00,49.6,15.9,30.74,ESE,117,0.0,0.0,26,0.00,,,0.00,WUHU216WMR968SP,2017-06-27 12:59:00,
2017-06-27 06:04:00,49.5,16.7,30.74,ESE,117,0.0,0.0,27,0.00,,,0.00,WUHU216WMR968SP,2017-06-27 13:04:00,
2017-06-27 06:09:00,49.3,15.7,30.74,ESE,117,0.0,0.0,26,0.00,,,0.00,WUHU216WMR968SP,2017-06-27 13:09:00,
2017-06-27 06:14:00,48.9,13.5,30.74,ESE,117,0.0,0.0,24,0.00,,,0.00,WUHU216WMR968SP,2017-06-27 13:14:00,
2017-06-27 06:19:00,49.1,13.7,30.74,ESE,117,0.0,0.0,24,0.00,,,0.00,WUHU216WMR968SP,2017-06-27 13:19:00,
2017-06-27 06:24:00,49.6,14.1,30.74,ESE,117,0.0,0.0,24,0.00,,,0.00,WUHU216WMR968SP,2017-06-27 13:24:00,
2017-06-27 06:29:00,50.0,11.5,30.71,ESE,117,0.0,0.0,21,0.00,,,0.00,WUHU216WMR968SP,2017-06-27 13:29:00,
2017-06-27 06:34:00,51.1,12.4,30.71,ESE,117,0.0,3.1,21,0.00,,,0.00,WUHU216WMR968SP,2017-06-27 13:34:00,
2017-06-27 06:39:00,53.1,14.1,30.71,ESE,117,0.0,3.1,21,0.00,,,0.00,WUHU216WMR968SP,2017-06-27 13:39:00,
2017-06-27 06:44:00,55.8,15.2,30.74,ESE,117,2.2,2.7,20,0.00,,,0.00,WUHU216WMR968SP,2017-06-27 13:44:00,
2017-06-27 06:49:00,57.7,15.6,30.74,ESE,117,0.0,2.7,19,0.00,,,0.00,WUHU216WMR968SP,2017-06-27 13:49:00,
2017-06-27 06:54:00,59.2,16.9,30.74,ESE,117,0.0,2.7,19,0.00,,,0.00,WUHU216WMR968SP,2017-06-27 13:54:00,
2017-06-27 06:59:00,61.5,18.8,30.74,ESE,117,0.0,0.0,19,0.00,,,0.00,WUHU216WMR968SP,2017-06-27 13:59:00,
2017-06-27 07:04:00,63.1,18.8,30.74,ESE,117,0.0,0.0,18,0.00,,,0.00,WUHU216WMR968SP,2017-06-27 14:04:00,
2017-06-27 07:09:00,64.0,19.6,30.74,ESE,117,0.0,0.0,18,0.00,,,0.00,WUHU216WMR968SP,2017-06-27 14:09:00,
2017-06-27 07:14:00,65.5,20.8,30.74,ESE,117,0.0,0.0,18,0.00,,,0.00,WUHU216WMR968SP,2017-06-27 14:14:00,
2017-06-27 07:19:00,66.6,20.4,30.74,ESE,117,0.0,0.0,17,0.00,,,0.00,WUHU216WMR968SP,2017-06-27 14:19:00,
2017-06-27 07:24:00,66.7,20.4,30.74,ESE,117,0.0,0.0,17,0.00,,,0.00,WUHU216WMR968SP,2017-06-27 14:24:00,
2017-06-27 07:29:00,66.6,20.4,30.74,ESE,117,0.0,0.0,17,0.00,,,0.00,WUHU216WMR968SP,2017-06-27 14:29:00,
2017-06-27 07:34:00,66.9,20.6,30.74,ESE,117,0.0,0.0,17,0.00,,,0.00,WUHU216WMR968SP,2017-06-27 14:34:00,
2017-06-27 07:39:00,67.1,20.8,30.74,ESE,117,0.0,0.0,17,0.00,,,0.00,WUHU216WMR968SP,2017-06-27 14:39:00,
2017-06-27 07:44:00,67.3,20.9,30.74,ESE,117,0.0,0.0,17,0.00,,,0.00,WUHU216WMR968SP,2017-06-27 14:44:00,
2017-06-27 07:49:00,67.6,21.2,30.74,ESE,117,0.0,0.0,17,0.00,,,0.00,WUHU216WMR968SP,2017-06-27 14:49:00,
2017-06-27 07:54:00,67.6,21.2,30.74,ESE,117,0.0,0.0,17,0.00,,,0.00,WUHU216WMR968SP,2017-06-27 14:54:00,
2017-06-27 07:59:00,67.3,20.9,30.74,ESE,117,0.0,0.0,17,0.00,,,0.00,WUHU216WMR968SP,2017-06-27 14:59:00,
2017-06-27 08:04:00,67.6,21.2,30.74,ESE,117,0.0,0.0,17,0.00,,,0.00,WUHU216WMR968SP,2017-06-27 15:04:00,
2017-06-27 08:09:00,67.8,21.3,30.74,ESE,117,0.0,0.0,17,0.00,,,0.00,WUHU216WMR968SP,2017-06-27 15:09:00,
2017-06-27 08:14:00,68.2,21.7,30.74,ESE,117,0.0,0.0,17,0.00,,,0.00,WUHU216WMR968SP,2017-06-27 15:14:00,
2017-06-27 08:19:00,68.9,22.2,30.74,ESE,117,0.0,0.0,17,0.00,,,0.00,WUHU216WMR968SP,2017-06-27 15:19:00,
2017-06-27 08:24:00,70.0,23.1,30.74,ESE,117,0.0,0.0,17,0.00,,,0.00,WUHU216WMR968SP,2017-06-27 15:24:00,
2017-06-27 08:29:00,70.0,23.1,30.74,ESE,117,0.0,0.0,17,0.00,,,0.00,WUHU216WMR968SP,2017-06-27 15:29:00,
2017-06-27 08:34:00,69.8,23.0,30.74,ESE,117,0.0,0.0,17,0.00,,,0.00,WUHU216WMR968SP,2017-06-27 15:34:00,
2017-06-27 08:39:00,70.3,23.4,30.74,ESE,117,0.0,0.0,17,0.00,,,0.00,WUHU216WMR968SP,2017-06-27 15:39:00,
2017-06-27 08:44:00,71.4,24.3,30.74,ESE,117,0.0,0.0,17,0.00,,,0.00,WUHU216WMR968SP,2017-06-27 15:44:00,
2017-06-27 08:49:00,72.7,23.9,30.74,ESE,117,0.0,0.0,16,0.00,,,0.00,WUHU216WMR968SP,2017-06-27 15:49:00,
2017-06-27 08:54:00,73.6,24.6,30.74,ESE,117,0.0,0.0,16,0.00,,,0.00,WUHU216WMR968SP,2017-06-27 15:54:00,
2017-06-27 08:59:00,73.4,24.4,30.74,ESE,117,0.0,0.0,16,0.00,,,0.00,WUHU216WMR968SP,2017-06-27 15:59:00,
2017-06-27 09:04:00,74.3,25.1,30.74,ESE,117,0.0,3.1,16,0.00,,,0.00,WUHU216WMR968SP,2017-06-27 16:04:00,
2017-06-27 09:09:00,75.4,24.5,30.74,ESE,118,0.0,4.0,15,0.00,,,0.00,WUHU216WMR968SP,2017-06-27 16:09:00,
2017-06-27 09:14:00,75.7,24.7,30.74,WNW,298,4.5,5.8,15,0.00,,,0.00,WUHU216WMR968SP,2017-06-27 16:14:00,
2017-06-27 09:19:00,76.3,25.2,30.74,WNW,298,0.0,5.8,15,0.00,,,0.00,WUHU216WMR968SP,2017-06-27 16:19:00,
2017-06-27 09:24:00,76.3,25.2,30.74,WNW,293,0.0,5.4,15,0.00,,,0.00,WUHU216WMR968SP,2017-06-27 16:24:00,
2017-06-27 09:29:00,75.9,24.9,30.74,WNW,294,4.9,5.8,15,0.00,,,0.00,WUHU216WMR968SP,2017-06-27 16:29:00,
2017-06-27 09:34:00,76.1,25.0,30.74,WNW,288,2.2,5.8,15,0.00,,,0.00,WUHU216WMR968SP,2017-06-27 16:34:00,
2017-06-27 09:39:00,76.1,25.0,30.74,NW,316,0.0,5.8,15,0.00,,,0.00,WUHU216WMR968SP,2017-06-27 16:39:00,
2017-06-27 09:44:00,76.3,25.2,30.74,WNW,295,2.2,5.8,15,0.00,,,0.00,WUHU216WMR968SP,2017-06-27 16:44:00,
2017-06-27 09:49:00,76.8,25.6,30.74,WNW,295,2.2,5.8,15,0.00,,,0.00,WUHU216WMR968SP,2017-06-27 16:49:00,
2017-06-27 09:54:00,76.6,25.4,30.74,WNW,295,2.7,6.3,15,0.00,,,0.00,WUHU216WMR968SP,2017-06-27 16:54:00,
2017-06-27 09:59:00,76.6,25.4,30.74,WNW,294,0.0,6.3,15,0.00,,,0.00,WUHU216WMR968SP,2017-06-27 16:59:00,
2017-06-27 10:04:00,77.0,25.7,30.74,WNW,284,0.0,4.0,15,0.00,,,0.00,WUHU216WMR968SP,2017-06-27 17:04:00,
2017-06-27 10:09:00,77.0,25.7,30.74,WNW,300,0.0,4.9,15,0.00,,,0.00,WUHU216WMR968SP,2017-06-27 17:09:00,
2017-06-27 10:14:00,77.0,25.7,30.71,NNW,339,0.0,6.3,15,0.00,,,0.00,WUHU216WMR968SP,2017-06-27 17:14:00,
2017-06-27 10:19:00,77.7,26.3,30.71,WNW,288,0.0,6.3,15,0.00,,,0.00,WUHU216WMR968SP,2017-06-27 17:19:00,
2017-06-27 10:24:00,78.3,26.8,30.71,NNW,344,3.6,5.8,15,0.00,,,0.00,WUHU216WMR968SP,2017-06-27 17:24:00,
2017-06-27 10:29:00,78.4,26.9,30.74,WNW,292,3.1,5.8,15,0.00,,,0.00,WUHU216WMR968SP,2017-06-27 17:29:00,
2017-06-27 10:34:00,78.6,27.0,30.74,WNW,290,2.7,5.8,15,0.00,,,0.00,WUHU216WMR968SP,2017-06-27 17:34:00,
2017-06-27 10:39:00,78.8,27.2,30.74,WNW,293,2.7,6.3,15,0.00,,,0.00,WUHU216WMR968SP,2017-06-27 17:39:00,
2017-06-27 10:44:00,79.2,27.5,30.74,WNW,290,0.0,8.1,15,0.00,,,0.00,WUHU216WMR968SP,2017-06-27 17:44:00,
2017-06-27 10:49:00,79.2,27.5,30.74,NW,305,3.1,8.1,15,0.00,,,0.00,WUHU216WMR968SP,2017-06-27 17:49:00,
2017-06-27 10:54:00,79.3,27.6,30.74,West,267,4.9,6.7,15,0.00,,,0.00,WUHU216WMR968SP,2017-06-27 17:54:00,
2017-06-27 10:59:00,79.5,27.7,30.74,WNW,292,2.2,6.7,15,0.00,,,0.00,WUHU216WMR968SP,2017-06-27 17:59:00,
2017-06-27 11:04:00,79.2,27.5,30.74,West,279,3.1,5.8,15,0.00,,,0.00,WUHU216WMR968SP,2017-06-27 18:04:00,
2017-06-27 11:09:00,79.3,27.6,30.74,NW,309,0.0,5.4,15,0.00,,,0.00,WUHU216WMR968SP,2017-06-27 18:09:00,
2017-06-27 11:14:00,79.9,28.1,30.71,WNW,302,4.0,6.3,15,0.00,,,0.00,WUHU216WMR968SP,2017-06-27 18:14:00,
2017-06-27 11:19:00,80.1,28.2,30.71,WSW,241,0.0,6.3,15,0.00,,,0.00,WUHU216WMR968SP,2017-06-27 18:19:00,
2017-06-27 11:24:00,80.4,28.5,30.71,West,261,0.0,4.5,15,0.00,,,0.00,WUHU216WMR968SP,2017-06-27 18:24:00,
2017-06-27 11:29:00,80.6,26.9,30.71,West,276,0.0,3.1,14,0.00,,,0.00,WUHU216WMR968SP,2017-06-27 18:29:00,
2017-06-27 11:34:00,81.0,27.2,30.71,West,271,0.0,3.1,14,0.00,,,0.00,WUHU216WMR968SP,2017-06-27 18:34:00,
2017-06-27 11:39:00,81.5,27.6,30.71,West,278,2.2,3.6,14,0.00,,,0.00,WUHU216WMR968SP,2017-06-27 18:39:00,
2017-06-27 11:44:00,82.2,28.2,30.71,NW,313,3.6,5.8,14,0.00,,,0.00,WUHU216WMR968SP,2017-06-27 18:44:00,
2017-06-27 11:49:00,82.2,28.2,30.71,West,281,2.2,5.8,14,0.00,,,0.00,WUHU216WMR968SP,2017-06-27 18:49:00,
2017-06-27 11:54:00,82.8,28.6,30.71,West,281,0.0,5.4,14,0.00,,,0.00,WUHU216WMR968SP,2017-06-27 18:54:00,
2017-06-27 11:59:00,83.1,28.9,30.71,SW,227,2.2,4.9,14,0.00,,,0.00,WUHU216WMR968SP,2017-06-27 18:59:00,
2017-06-27 12:04:00,83.1,28.9,30.71,West,260,0.0,4.9,14,0.00,,,0.00,WUHU216WMR968SP,2017-06-27 19:04:00,
2017-06-27 12:09:00,83.3,29.0,30.71,West,279,0.0,4.0,14,0.00,,,0.00,WUHU216WMR968SP,2017-06-27 19:09:00,
2017-06-27 12:14:00,83.1,28.9,30.71,WNW,293,3.1,4.9,14,0.00,,,0.00,WUHU216WMR968SP,2017-06-27 19:14:00,
2017-06-27 12:19:00,83.7,29.3,30.71,WNW,289,0.0,4.9,14,0.00,,,0.00,WUHU216WMR968SP,2017-06-27 19:19:00,
2017-06-27 12:24:00,84.0,29.6,30.71,West,271,0.0,3.1,14,0.00,,,0.00,WUHU216WMR968SP,2017-06-27 19:24:00,
2017-06-27 12:29:00,84.0,29.6,30.71,West,270,0.0,4.0,14,0.00,,,0.00,WUHU216WMR968SP,2017-06-27 19:29:00,
2017-06-27 12:34:00,84.9,28.4,30.71,WSW,241,0.0,4.0,13,0.00,,,0.00,WUHU216WMR968SP,2017-06-27 19:34:00,
2017-06-27 12:39:00,85.1,28.6,30.71,WSW,256,0.0,3.1,13,0.00,,,0.00,WUHU216WMR968SP,2017-06-27 19:39:00,
2017-06-27 12:44:00,85.1,28.6,30.71,West,275,0.0,6.3,13,0.00,,,0.00,WUHU216WMR968SP,2017-06-27 19:44:00,
2017-06-27 12:49:00,85.5,28.9,30.71,West,280,0.0,6.3,13,0.00,,,0.00,WUHU216WMR968SP,2017-06-27 19:49:00,
2017-06-27 12:54:00,86.0,29.3,30.71,WNW,303,0.0,4.9,13,0.00,,,0.00,WUHU216WMR968SP,2017-06-27 19:54:00,
2017-06-27 12:59:00,86.4,29.6,30.71,East,98,4.0,5.8,13,0.00,,,0.00,WUHU216WMR968SP,2017-06-27 19:59:00,
2017-06-27 13:04:00,86.0,29.3,30.71,NW,306,7.6,10.5,13,0.00,,,0.00,WUHU216WMR968SP,2017-06-27 20:04:00,
2017-06-27 13:09:00,85.6,29.0,30.71,West,276,4.5,10.5,13,0.00,,,0.00,WUHU216WMR968SP,2017-06-27 20:09:00,
2017-06-27 13:14:00,86.4,29.6,30.71,WNW,300,4.5,8.1,13,0.00,,,0.00,WUHU216WMR968SP,2017-06-27 20:14:00,
2017-06-27 13:19:00,87.1,30.2,30.71,SW,226,4.9,8.3,13,0.00,,,0.00,WUHU216WMR968SP,2017-06-27 20:19:00,
2017-06-27 13:24:00,86.4,29.6,30.71,NW,313,0.0,8.3,13,0.00,,,0.00,WUHU216WMR968SP,2017-06-27 20:24:00,
2017-06-27 13:29:00,86.2,29.5,30.71,North,353,0.0,8.3,13,0.00,,,0.00,WUHU216WMR968SP,2017-06-27 20:29:00,
2017-06-27 13:34:00,86.7,29.8,30.71,NW,324,0.0,6.3,13,0.00,,,0.00,WUHU216WMR968SP,2017-06-27 20:34:00,
2017-06-27 13:39:00,87.3,30.3,30.71,NW,311,0.0,5.8,13,0.00,,,0.00,WUHU216WMR968SP,2017-06-27 20:39:00,
2017-06-27 13:44:00,87.8,30.7,30.71,West,274,0.0,5.8,13,0.00,,,0.00,WUHU216WMR968SP,2017-06-27 20:44:00,
2017-06-27 13:49:00,88.2,31.0,30.71,ESE,119,0.0,5.8,13,0.00,,,0.00,WUHU216WMR968SP,2017-06-27 20:49:00,
2017-06-27 13:54:00,88.2,31.0,30.71,West,273,3.1,6.3,13,0.00,,,0.00,WUHU216WMR968SP,2017-06-27 20:54:00,
2017-06-27 13:59:00,88.3,31.1,30.71,WNW,302,0.0,6.3,13,0.00,,,0.00,WUHU216WMR968SP,2017-06-27 20:59:00,
2017-06-27 14:04:00,88.2,31.0,30.71,ESE,102,2.2,6.3,13,0.00,,,0.00,WUHU216WMR968SP,2017-06-27 21:04:00,
2017-06-27 14:09:00,88.5,31.3,30.71,WNW,287,0.0,5.4,13,0.00,,,0.00,WUHU216WMR968SP,2017-06-27 21:09:00,
2017-06-27 14:14:00,89.1,32.0,30.68,SSW,202,0.0,4.9,13,0.00,,,0.00,WUHU216WMR968SP,2017-06-27 21:14:00,
2017-06-27 14:19:00,89.1,32.0,30.68,WNW,299,0.0,8.7,13,0.00,,,0.00,WUHU216WMR968SP,2017-06-27 21:19:00,
2017-06-27 14:24:00,89.4,32.0,30.68,WSW,253,0.0,8.7,13,0.00,,,0.00,WUHU216WMR968SP,2017-06-27 21:24:00,
2017-06-27 14:29:00,89.2,32.0,30.71,WNW,301,0.0,8.3,13,0.00,,,0.00,WUHU216WMR968SP,2017-06-27 21:29:00,
2017-06-27 14:34:00,89.4,32.0,30.71,WNW,288,3.6,8.3,13,0.00,,,0.00,WUHU216WMR968SP,2017-06-27 21:34:00,
2017-06-27 14:35:00,89.4,32.0,30.71,West,278,3.6,8.3,13,0.00,,,0.00,WUHU216WMR968SP,2017-06-27 21:35:00,
2017-06-27 14:40:00,89.6,30.1,30.71,WNW,300,2.2,7.2,12,0.00,,,0.00,WUHU216WMR968SP,2017-06-27 21:40:00,
2017-06-27 14:45:00,90.0,30.4,30.71,West,277,3.6,7.2,12,0.00,,,0.00,WUHU216WMR968SP,2017-06-27 21:45:00,
2017-06-27 14:50:00,89.8,30.2,30.71,West,273,3.1,8.7,12,0.00,,,0.00,WUHU216WMR968SP,2017-06-27 21:50:00,
2017-06-27 14:55:00,90.0,30.4,30.71,WSW,237,0.0,8.7,12,0.00,,,0.00,WUHU216WMR968SP,2017-06-27 21:55:00,
2017-06-27 15:00:00,89.4,32.0,30.71,WSW,244,6.7,11.0,13,0.00,,,0.00,WUHU216WMR968SP,2017-06-27 22:00:00,
2017-06-27 15:05:00,88.9,32.0,30.71,SW,224,3.6,11.0,13,0.00,,,0.00,WUHU216WMR968SP,2017-06-27 22:05:00,
2017-06-27 15:10:00,88.9,32.0,30.71,South,169,4.9,11.0,13,0.00,,,0.00,WUHU216WMR968SP,2017-06-27 22:10:00,
2017-06-27 15:15:00,88.9,32.0,30.68,SW,223,8.7,13.2,13,0.00,,,0.00,WUHU216WMR968SP,2017-06-27 22:15:00,
2017-06-27 15:20:00,88.3,31.1,30.68,SW,228,5.4,13.2,13,0.00,,,0.00,WUHU216WMR968SP,2017-06-27 22:20:00,
2017-06-27 15:25:00,88.0,30.9,30.68,SW,224,6.7,12.3,13,0.00,,,0.00,WUHU216WMR968SP,2017-06-27 22:25:00,
2017-06-27 15:30:00,88.2,31.0,30.68,WSW,247,4.9,12.3,13,0.00,,,0.00,WUHU216WMR968SP,2017-06-27 22:30:00,
2017-06-27 15:35:00,87.8,30.7,30.68,South,191,8.7,12.8,13,0.00,,,0.00,WUHU216WMR968SP,2017-06-27 22:35:00,
2017-06-27 15:40:00,87.6,30.5,30.68,SW,226,9.2,12.8,13,0.00,,,0.00,WUHU216WMR968SP,2017-06-27 22:40:00,
2017-06-27 15:45:00,87.1,30.2,30.68,South,183,7.2,12.8,13,0.00,,,0.00,WUHU216WMR968SP,2017-06-27 22:45:00,
2017-06-27 15:50:00,87.4,30.4,30.68,SSW,196,3.1,12.8,13,0.00,,,0.00,WUHU216WMR968SP,2017-06-27 22:50:00,
2017-06-27 15:55:00,88.0,30.9,30.68,WSW,248,8.1,10.5,13,0.00,,,0.00,WUHU216WMR968SP,2017-06-27 22:55:00,
2017-06-27 16:00:00,87.8,30.7,30.71,WSW,246,7.6,10.5,13,0.00,,,0.00,WUHU216WMR968SP,2017-06-27 23:00:00,
2017-06-27 16:05:00,87.3,30.3,30.71,SW,220,8.7,13.2,13,0.00,,,0.00,WUHU216WMR968SP,2017-06-27 23:05:00,
2017-06-27 16:10:00,87.1,30.2,30.71,SW,219,7.6,13.2,13,0.00,,,0.00,WUHU216WMR968SP,2017-06-27 23:10:00,
2017-06-27 16:15:00,87.1,30.2,30.68,SW,224,6.7,12.8,13,0.00,,,0.00,WUHU216WMR968SP,2017-06-27 23:15:00,
2017-06-27 16:20:00,87.1,30.2,30.68,SW,217,7.2,10.1,13,0.00,,,0.00,WUHU216WMR968SP,2017-06-27 23:20:00,
2017-06-27 16:25:00,86.9,30.0,30.68,SW,234,7.6,12.3,13,0.00,,,0.00,WUHU216WMR968SP,2017-06-27 23:25:00,
2017-06-27 16:30:00,86.7,29.8,30.68,SW,217,6.3,12.3,13,0.00,,,0.00,WUHU216WMR968SP,2017-06-27 23:30:00,
2017-06-27 16:35:00,86.9,30.0,30.68,WSW,246,6.7,10.5,13,0.00,,,0.00,WUHU216WMR968SP,2017-06-27 23:35:00,
2017-06-27 16:40:00,87.1,30.2,30.68,SSW,210,7.2,10.5,13,0.00,,,0.00,WUHU216WMR968SP,2017-06-27 23:40:00,
2017-06-27 16:45:00,86.7,29.8,30.68,SW,224,6.7,11.0,13,0.00,,,0.00,WUHU216WMR968SP,2017-06-27 23:45:00,
2017-06-27 16:50:00,86.5,29.7,30.68,SW,227,6.7,11.0,13,0.00,,,0.00,WUHU216WMR968SP,2017-06-27 23:50:00,
2017-06-27 16:55:00,86.9,30.0,30.68,SW,226,5.8,10.5,13,0.00,,,0.00,WUHU216WMR968SP,2017-06-27 23:55:00,
2017-06-27 17:00:00,86.0,29.3,30.68,SSW,206,5.8,11.0,13,0.00,,,0.00,WUHU216WMR968SP,2017-06-28 00:00:00,
2017-06-27 17:05:00,85.6,29.0,30.68,SW,227,10.1,11.9,13,0.00,,,0.00,WUHU216WMR968SP,2017-06-28 00:05:00,
2017-06-27 17:10:00,84.7,28.3,30.68,SW,227,9.2,11.9,13,0.00,,,0.00,WUHU216WMR968SP,2017-06-28 00:10:00,
2017-06-27 17:15:00,84.0,29.6,30.68,SSE,168,4.9,10.1,14,0.00,,,0.00,WUHU216WMR968SP,2017-06-28 00:15:00,
2017-06-27 17:20:00,83.3,29.0,30.68,SSW,193,9.6,13.2,14,0.00,,,0.00,WUHU216WMR968SP,2017-06-28 00:20:00,
2017-06-27 17:25:00,82.8,28.6,30.68,SW,236,6.7,13.2,14,0.00,,,0.00,WUHU216WMR968SP,2017-06-28 00:25:00,
2017-06-27 17:30:00,82.4,28.3,30.68,SW,234,6.3,11.0,14,0.00,,,0.00,WUHU216WMR968SP,2017-06-28 00:30:00,
2017-06-27 17:35:00,82.2,28.2,30.68,SW,219,5.4,10.1,14,0.00,,,0.00,WUHU216WMR968SP,2017-06-28 00:35:00,
2017-06-27 17:40:00,82.2,28.2,30.68,SSE,164,5.4,10.5,14,0.00,,,0.00,WUHU216WMR968SP,2017-06-28 00:40:00,
2017-06-27 17:45:00,82.2,28.2,30.68,SSW,206,6.3,10.5,14,0.00,,,0.00,WUHU216WMR968SP,2017-06-28 00:45:00,
2017-06-27 17:50:00,81.9,27.9,30.68,SW,214,6.7,10.1,14,0.00,,,0.00,WUHU216WMR968SP,2017-06-28 00:50:00,
2017-06-27 17:55:00,81.3,27.5,30.68,SW,219,7.6,10.5,14,0.00,,,0.00,WUHU216WMR968SP,2017-06-28 00:55:00,
2017-06-27 18:00:00,81.0,27.2,30.68,SSW,192,4.9,10.5,14,0.00,,,0.00,WUHU216WMR968SP,2017-06-28 01:00:00,
2017-06-27 18:05:00,80.8,27.1,30.68,SSW,196,6.3,8.7,14,0.00,,,0.00,WUHU216WMR968SP,2017-06-28 01:05:00,
2017-06-27 18:10:00,80.6,26.9,30.68,WSW,240,5.4,10.1,14,0.00,,,0.00,WUHU216WMR968SP,2017-06-28 01:10:00,
2017-06-27 18:15:00,80.2,28.3,30.68,WSW,244,2.7,10.1,15,0.00,,,0.00,WUHU216WMR968SP,2017-06-28 01:15:00,
2017-06-27 18:20:00,80.2,28.3,30.68,SE,128,7.2,10.1,15,0.00,,,0.00,WUHU216WMR968SP,2017-06-28 01:20:00,
2017-06-27 18:25:00,80.2,28.3,30.68,South,178,6.7,11.0,15,0.00,,,0.00,WUHU216WMR968SP,2017-06-28 01:25:00,
2017-06-27 18:30:00,80.2,28.3,30.68,WSW,239,7.2,11.0,15,0.00,,,0.00,WUHU216WMR968SP,2017-06-28 01:30:00,
2017-06-27 18:35:00,79.7,27.9,30.68,SW,223,7.2,9.2,15,0.00,,,0.00,WUHU216WMR968SP,2017-06-28 01:35:00,
2017-06-27 18:40:00,79.0,27.3,30.68,SSW,194,2.7,8.7,15,0.00,,,0.00,WUHU216WMR968SP,2017-06-28 01:40:00,
2017-06-27 18:45:00,78.8,27.2,30.68,South,188,4.5,8.7,15,0.00,,,0.00,WUHU216WMR968SP,2017-06-28 01:45:00,
2017-06-27 18:50:00,78.8,27.2,30.68,SW,215,5.8,10.1,15,0.00,,,0.00,WUHU216WMR968SP,2017-06-28 01:50:00,
2017-06-27 18:55:00,78.8,27.2,30.68,South,190,7.6,10.1,15,0.00,,,0.00,WUHU216WMR968SP,2017-06-28 01:55:00,
2017-06-27 19:00:00,78.4,26.9,30.65,South,182,7.2,8.7,15,0.00,,,0.00,WUHU216WMR968SP,2017-06-28 02:00:00,
2017-06-27 19:05:00,78.4,26.9,30.65,South,170,8.1,12.3,15,0.00,,,0.00,WUHU216WMR968SP,2017-06-28 02:05:00,
2017-06-27 19:10:00,78.1,26.6,30.65,South,177,8.3,12.3,15,0.00,,,0.00,WUHU216WMR968SP,2017-06-28 02:10:00,
2017-06-27 19:15:00,77.5,26.1,30.68,SSW,208,8.1,11.4,15,0.00,,,0.00,WUHU216WMR968SP,2017-06-28 02:15:00,
2017-06-27 19:20:00,77.2,25.9,30.68,South,191,5.8,12.8,15,0.00,,,0.00,WUHU216WMR968SP,2017-06-28 02:20:00,
2017-06-27 19:25:00,76.6,25.4,30.68,SSW,193,7.6,12.8,15,0.00,,,0.00,WUHU216WMR968SP,2017-06-28 02:25:00,
2017-06-27 19:30:00,76.6,25.4,30.68,SSE,149,8.1,10.5,15,0.00,,,0.00,WUHU216WMR968SP,2017-06-28 02:30:00,
2017-06-27 19:35:00,76.5,25.3,30.68,SSE,149,6.3,10.5,15,0.00,,,0.00,WUHU216WMR968SP,2017-06-28 02:35:00,
2017-06-27 19:40:00,75.6,24.6,30.68,SSE,167,6.7,10.5,15,0.00,,,0.00,WUHU216WMR968SP,2017-06-28 02:40:00,
2017-06-27 19:45:00,75.4,24.5,30.68,SW,214,5.4,10.5,15,0.00,,,0.00,WUHU216WMR968SP,2017-06-28 02:45:00,
2017-06-27 19:50:00,74.7,25.5,30.68,SSW,197,7.2,12.3,16,0.00,,,0.00,WUHU216WMR968SP,2017-06-28 02:50:00,